Station: Williamson

  Atmospheric Gas Attenuation - ITU Rec 676-11   --------------- db/100km ---------------
Date Time Temp RH % AH g/m3 Dew Point Wind Direction Speed kph Gust kph Barometer mB Rainfall Since 9am 24GHz 47GHz 76GHz 122GHz 134GHz 241GHz
27 01:20 26.4 79 19.67 22.5 7 9 1008.2 0 42.3 40.4 78.6 208.0 230.0 799.3
27 01:10 26.3 79 19.56 22.4 7 7 1008.2 0 42.0 40.3 78.2 206.9 228.7 794.4
27 01:00 26.4 79 19.67 22.5 9 15 1008.2 0 42.3 40.4 78.6 208.0 230.0 799.3
27 00:50 26.4 79 19.67 22.5 9 11 1008.3 0 42.3 40.4 78.6 208.0 230.1 799.3
27 00:40 26.5 79 19.78 22.6 7 7 1008.5 0 42.5 40.6 79.0 209.1 231.5 804.2
27 00:30 26.5 79 19.78 22.6 9 13 1008.7 0 42.5 40.6 79.0 209.2 231.5 804.3
27 00:20 26.5 79 19.78 22.6 6 7 1008.9 0 42.5 40.6 79.0 209.2 231.5 804.5
27 00:10 26.5 79 19.78 22.6 6 7 1009.1 0 42.5 40.6 79.1 209.2 231.6 804.6
27 00:00 26.5 78 19.53 22.3 6 11 1009.2 0 42.0 40.1 77.9 206.1 227.7 791.3
26 23:50 26.6 78 19.63 22.4 7 9 1009.4 0 42.2 40.3 78.3 207.1 229.0 795.7
26 23:40 26.6 78 19.63 22.4 7 9 1009.5 0 42.2 40.3 78.3 207.2 229.0 795.7
26 23:30 26.7 78 19.74 22.5 9 19 1009.6 0 42.4 40.5 78.7 208.3 230.4 800.6
26 23:20 26.7 78 19.74 22.5 7 9 1009.7 0 42.4 40.5 78.7 208.3 230.4 800.6
26 23:10 26.7 77 19.49 22.3 7 7 1009.8 0 41.8 40.0 77.5 205.2 226.6 787.4
26 23:00 26.7 77 19.49 22.3 11 17 1009.9 0 41.8 40.0 77.5 205.2 226.6 787.5
26 22:50 26.7 77 19.49 22.3 13 19 1009.9 0 41.8 40.0 77.5 205.2 226.6 787.5
26 22:40 26.8 77 19.6 22.4 7 11 1009.8 0 42.1 40.2 77.9 206.3 228.0 792.2
26 22:30 26.7 77 19.49 22.3 9 15 1009.8 0 41.8 40.0 77.5 205.2 226.6 787.4
26 22:20 26.7 77 19.49 22.3 11 15 1009.8 0 41.8 40.0 77.5 205.2 226.6 787.4
26 22:10 26.7 77 19.49 22.3 11 15 1009.8 0 41.8 40.0 77.5 205.2 226.6 787.4
26 22:00 26.7 77 19.49 22.3 13 19 1009.7 0 41.8 40.0 77.5 205.2 226.6 787.3
26 21:50 26.6 77 19.38 22.2 6 11 1009.8 0 41.6 39.8 77.1 204.1 225.2 782.6
26 21:40 26.7 76 19.24 22.1 11 15 1009.7 0 41.3 39.5 76.4 202.1 222.8 774.1
26 21:30 26.7 76 19.24 22.1 11 22 1009.8 0 41.3 39.5 76.4 202.1 222.8 774.2
26 21:20 26.7 75 18.98 21.9 13 17 1009.6 0 40.8 39.0 75.2 198.9 218.9 760.4
26 21:10 26.7 74 18.73 21.7 11 15 1009.6 0 40.2 38.6 74.0 195.8 215.1 747.4
26 21:00 26.8 74 18.84 21.8 11 19 1009.7 0 40.5 38.7 74.4 196.9 216.5 752.2
26 20:50 26.9 72 18.43 21.6 13 15 1009.5 0 39.6 37.9 72.4 191.7 210.1 729.9
26 20:40 26.9 72 18.43 21.4 13 17 1009.5 0 39.6 37.9 72.4 191.7 210.1 729.9
26 20:30 27 72 18.53 21.5 9 13 1009.5 0 39.8 38.1 72.8 192.6 211.3 734.1
26 20:20 27 71 18.27 21.3 9 9 1009.5 0 39.2 37.6 71.6 189.5 207.5 720.7
26 20:10 27.1 70 18.12 21.2 7 9 1009.5 0 38.9 37.3 70.9 187.4 205.0 712.2
26 20:00 27.1 70 18.12 21.2 9 20 1009.4 0 38.9 37.3 70.9 187.4 205.0 712.1
26 19:50 27.2 69 17.96 21 7 9 1009.3 0 38.6 36.9 70.0 185.3 202.3 703.0
26 19:40 27.2 69 17.96 21 9 13 1009.1 0 38.6 36.9 70.0 185.2 202.3 702.9
26 19:30 27.3 68 17.79 20.9 11 17 1009 0 38.2 36.6 69.2 183.0 199.6 693.4
26 19:20 27.3 69 18.06 21.1 15 19 1008.9 0 38.8 37.1 70.4 186.2 203.5 707.0
26 19:10 27.3 69 18.06 21.1 13 19 1008.8 0 38.8 37.1 70.4 186.1 203.5 706.9
26 19:00 27.4 70 18.42 21.4 13 22 1008.7 0 39.5 37.7 71.9 190.2 208.4 724.2
26 18:50 27.6 68 18.09 21.2 11 13 1008.6 0 38.8 37.0 70.2 185.7 203.1 705.6
26 18:40 27.7 67 17.92 21 11 13 1008.6 0 38.4 36.6 69.4 183.5 200.3 696.1
26 18:30 27.8 67 18.02 21.1 15 22 1008.4 0 38.6 36.8 69.7 184.4 201.5 700.1
26 18:20 27.9 66 17.85 21 11 15 1008.3 0 38.3 36.4 68.9 182.2 198.8 690.6
26 18:10 28 65 17.68 20.8 13 17 1008.1 0 37.9 36.1 68.0 179.9 196.0 681.2
26 18:00 28.2 63 17.32 20.5 13 20 1007.9 0 37.1 35.3 66.3 175.3 190.4 661.6
26 17:50 28.3 63 17.42 20.6 11 15 1007.8 0 37.3 35.5 66.6 176.2 191.6 665.6
26 17:40 28.5 63 17.61 20.8 15 22 1007.7 0 37.7 35.7 67.3 177.9 193.7 673.1
26 17:30 28.5 62 17.33 20.5 15 24 1007.6 0 37.1 35.2 66.0 174.7 189.8 659.4
26 17:20 28.7 60 16.96 20.4 15 20 1007.6 0 36.3 34.5 64.3 170.0 184.1 639.7
26 17:10 28.8 61 17.33 20.5 22 28 1007.5 0 37.1 35.1 65.8 174.0 189.0 656.8
26 17:00 28.9 60 17.14 20.4 15 32 1007.3 0 36.7 34.7 64.9 171.6 186.1 646.6
26 16:50 29 59 16.95 20.2 19 24 1007.1 0 36.3 34.3 64.0 169.2 183.2 636.5
26 16:40 29.4 58 17.03 20.3 17 30 1007.1 0 36.4 34.3 64.0 169.2 183.3 637.1
26 16:30 29.5 57 16.83 20.1 15 24 1007 0 36.0 33.9 63.1 166.8 180.3 626.7
26 16:20 29.7 57 17.01 20.3 13 17 1007.1 0 36.3 34.2 63.7 168.3 182.3 633.7
26 16:10 29.8 56 16.8 20.1 13 17 1007.1 0 35.9 33.8 62.7 165.8 179.3 622.9
26 16:00 30.2 55 16.86 20.4 13 22 1007 0 36.0 33.7 62.6 165.6 179.1 622.5
26 15:50 29.9 54 16.29 19.6 17 24 1007 0 34.8 32.9 60.5 160.0 172.1 598.1
26 15:40 29.9 54 16.29 19.6 11 11 1006.9 0 34.8 32.9 60.5 160.0 172.1 598.1
26 15:30 30.2 55 16.86 20.2 17 26 1007 0 36.0 33.7 62.6 165.6 179.1 622.5
26 15:20 30.1 53 16.16 19.5 17 20 1006.9 0 34.5 32.6 59.8 158.2 170.0 590.5
26 15:10 30.5 53 16.52 20.1 9 11 1007 0 35.2 33.0 61.0 161.3 173.9 604.2
26 15:00 30.1 55 16.77 20.1 15 22 1007 0 35.8 33.6 62.3 164.8 178.1 619.1
26 14:50 30.1 56 17.08 20.4 11 15 1007.1 0 36.5 34.1 63.6 168.3 182.4 633.8
26 14:40 30.3 52 16.03 19.6 19 24 1007.1 0 34.2 32.3 59.2 156.4 167.8 583.1
26 14:30 30.4 53 16.43 20 17 26 1007.1 0 35.1 32.9 60.7 160.5 172.9 600.9
26 14:20 30.8 51 16.15 19.5 19 24 1007.2 0 34.4 32.3 59.3 156.7 168.3 584.9
26 14:10 30.7 49 15.43 18.8 17 22 1007.2 0 33.0 31.2 56.5 149.2 159.2 552.9
26 14:00 31 52 16.65 20 20 35 1007.2 0 35.5 33.1 61.1 161.7 174.5 606.5
26 13:50 31.7 49 16.28 19.7 22 33 1007.2 0 34.6 32.2 59.1 156.3 168.1 584.2
26 13:40 32 45 15.2 18.9 15 19 1007.2 0 32.4 30.4 54.7 144.5 153.6 533.8
26 13:30 30.7 50 15.75 19.1 20 33 1007.4 0 33.6 31.7 57.8 152.7 163.3 567.5
26 13:20 31.3 46 14.96 18.6 17 19 1007.3 0 31.9 30.3 54.2 143.3 152.0 527.9
26 13:10 30.7 50 15.75 19.1 22 28 1007.5 0 33.6 31.7 57.8 152.7 163.3 567.5
26 13:00 31.5 49 16.11 19.5 17 26 1007.6 0 34.3 32.0 58.6 154.9 166.3 578.1
26 12:50 31.7 47 15.62 19 11 15 1007.7 0 33.3 31.2 56.5 149.4 159.6 554.7
26 12:40 31.5 44 14.47 18.1 19 28 1007.8 0 30.9 29.5 52.2 138.0 145.5 505.4
26 12:30 32.1 42 14.26 17.9 17 28 1007.9 0 30.4 28.9 51.1 134.9 141.8 492.6
26 12:20 32.3 44 15.1 18.8 15 17 1008 0 32.1 30.2 54.1 143.0 151.9 527.7
26 12:10 31.4 46 15.04 18.7 15 19 1008.2 0 32.1 30.4 54.5 144.0 152.9 531.1
26 12:00 31.1 48 15.45 18.8 20 33 1008.4 0 33.0 31.1 56.3 148.9 158.7 551.5
26 11:50 31.4 49 16.03 19.4 20 28 1008.5 0 34.1 32.0 58.4 154.4 165.6 575.6
26 11:40 31.2 49 15.85 19.5 13 17 1008.6 0 33.8 31.8 57.8 152.9 163.7 568.9
26 11:30 31.6 47 15.54 18.9 19 33 1008.7 0 33.1 31.1 56.3 148.9 158.9 552.2
26 11:20 31.6 49 16.2 19.6 17 22 1008.9 0 34.5 32.2 59.0 155.9 167.5 582.0
26 11:10 31.4 49 16.03 19.7 20 26 1008.9 0 34.1 32.0 58.4 154.5 165.7 575.8
26 11:00 31 48 15.37 19 17 28 1009 0 32.8 31.1 56.1 148.3 158.0 548.9
26 10:50 31.1 51 16.41 19.8 20 26 1009 0 35.0 32.7 60.2 159.1 171.3 595.4
26 10:40 30 56 16.99 20.3 13 15 1009 0 36.3 34.1 63.4 167.7 181.6 631.2
26 10:30 29.8 56 16.8 20.1 17 28 1009.1 0 35.9 33.9 62.8 166.1 179.5 623.8
26 10:20 29.9 56 16.89 20.2 15 20 1009.1 0 36.1 34.0 63.1 166.9 180.5 627.3
26 10:10 29.7 55 16.41 19.7 20 24 1009 0 35.1 33.2 61.3 162.0 174.5 606.2
26 10:00 29.7 54 16.11 19.4 17 30 1009 0 34.4 32.7 60.0 158.7 170.4 592.1
26 09:50 30.3 55 16.95 20.5 15 20 1008.9 0 36.2 33.9 63.0 166.6 180.3 626.8
26 09:40 30.4 57 17.67 20.9 22 26 1008.9 0 37.6 35.1 65.9 174.4 189.9 660.2
26 09:30 30 57 17.29 20.8 15 24 1009 0 36.9 34.6 64.7 171.1 185.7 645.4
26 09:20 29.4 63 18.5 21.6 11 13 1009.1 0 39.5 36.9 70.4 186.3 204.2 709.8
26 09:10 28.9 65 18.57 21.7 11 13 1009.2 0 39.7 37.3 71.2 188.3 206.6 718.0
26 09:00 28.6 64 17.99 21.1 15 24 1009.3 0 38.5 36.4 68.9 182.3 199.1 691.8
26 08:50 28.8 64 18.19 21.3 15 17 1009.2 0 38.9 36.7 69.6 184.1 201.4 699.9

Last Refresh: 27-Feb-2021 02:06:49

Most of the information presented on this site is sourced from the Bureau of Meteorology.  Copyright in all material sourced from the Bureau of Meteorology resides with the Commonwealth of Australia.